默认 日期 大小 文件数 浏览量 最新下载 xml
1.08磁力链接相关资源由用户搜索指令自动获取,结果来源于网络,本站不存储任何资料,亦不承担任何责任,请于24小时内删除,搜索到13426个磁力,显示前4000条数据,用时82ms。
    {"ReadMe.url": 1484, "Malwarebytes Anti-Exploit 1.08.1.1189 + Keys.exe": 6530558, "Torrent downloaded from extremlymtorrents.me.txt": 68}
创建时间: 2019-04-09 22:01:31 大小:6.23 MB 文件数量:3 热度:10 最近下载:2025-03-28 09:34:01
    ... .2beta_windows-i686.exe": 9820372, "WindowBlinds601_enhanced(1).exe": 17284720, "dfxInstall-Yahoo - ... exe": 14810696, "MetaProducts Download Express 1.9.exe": 702792, "Wireless ... txt": 285, "LightScribeTemplateLabeler_1.10.16.1.exe": 32008096, "Sound Blaster ...
创建时间: 2019-04-17 23:28:12 大小:436.84 MB 文件数量:45 热度:9 最近下载:2025-02-01 17:59:02
    {"ReadMe.txt": 936, "www.MEGAtorrent.co.jpg": 121208, "Torrent downloaded from H33t.to.txt": 64, "Soda PDF Home 11.1.08.2754 Multilingual + Medicine.exe": 30784610, "Soda PDF Home 11.1.08.2754 Multilingual + Medicine.nfo": 544}
创建时间: 2019-04-18 00:47:59 大小:29.48 MB 文件数量:5 热度:10 最近下载:2025-03-21 08:18:01
    {"crack": {"run_1ff9e.exe": 122158}, "Readme!!.inf": 1084, "WWW.YIFY-TORRENTS.COM.jpg": 85424, "Torrent downloaded from extremlymtorrents.me.txt": 48, "Vector Magic Desktop Edition_Win 32bit 1.08.zip.exe": 72005158}
创建时间: 2019-04-19 20:42:06 大小:68.87 MB 文件数量:5 热度:7 最近下载:2025-03-12 11:57:03
    {"ReadMe.txt": 936, "www.MEGAtorrent.co.jpg": 121208, "Torrent downloaded from H33t.to.txt": 64, "Soda PDF Home 11.1.08.2754 Multilingual + Medicine.exe": 30784610, "Soda PDF Home 11.1.08.2754 Multilingual + Medicine.nfo": 544}
创建时间: 2019-04-21 03:59:56 大小:29.48 MB 文件数量:5 热度:9 最近下载:2025-03-20 19:08:02
    {"Seizer (2018) 720p Hindi Dubbed WEBHD x264 AC3 1.08 GB - [Pherarim].mkv": 1163551468}
创建时间: 2019-04-22 01:31:21 大小:1.08 GB 文件数量:1 热度:5 最近下载:2022-04-17 05:46:02
    {"Kavan (2017) 720p Hindi Dubbed WEBHD x264 AC3 1.08 GB - [Pherarim].mkv": 1179580303}
创建时间: 2019-04-22 11:58:12 大小:1.1 GB 文件数量:1 热度:7 最近下载:2025-09-19 11:38:02
    {"ReadMe.txt": 936, "www.MEGAtorrent.co.jpg": 121208, "Torrent downloaded from H33t.to.txt": 64, "Soda PDF Home 11.1.08.2754 Multilingual + Medicine.exe": 30784610, "Soda PDF Home 11.1.08.2754 Multilingual + Medicine.nfo": 544}
创建时间: 2019-04-23 04:07:35 大小:29.48 MB 文件数量:5 热度:7 最近下载:2025-04-07 00:40:02
    {"ReadMe.url": 1484, "Malwarebytes Anti-Exploit 1.08.1.1189 + Keys.exe": 6530558, "Torrent downloaded from extremlymtorrents.me.txt": 68}
创建时间: 2019-04-24 16:53:50 大小:6.23 MB 文件数量:3 热度:8 最近下载:2025-04-30 00:48:02
    ... , "Pixel Boy_Data": {"Mono": {"etc": {"mono": {"1.0": {"machine.config": 17259, "DefaultWsdlHelpGenerator ...
创建时间: 2019-04-27 05:22:36 大小:307.84 MB 文件数量:68 热度:4 最近下载:2023-04-24 23:50:24
    {"bean.nfo": 2710, "Keygen.exe": 14876, "install.txt": 145, "SetupLibraryToolkit1108.msi": 1395200}
创建时间: 2019-04-27 20:13:20 大小:1.35 MB 文件数量:4 热度:2 最近下载:2021-06-17 16:25:58
    {"crack": {"run_1ff9e.exe": 122158}, "Readme!!.inf": 1084, "WWW.YIFY-TORRENTS.COM.jpg": 85424, "Torrent downloaded from extremlymtorrents.me.txt": 48, "Vector Magic Desktop Edition_Win 32bit 1.08.zip.exe": 72005160}
创建时间: 2019-04-29 11:32:17 大小:68.87 MB 文件数量:5 热度:6 最近下载:2025-02-06 01:48:04
    {"Malwarebytes Anti-Exploit 1 08 1 2563 Keys.rar": 9788460}
创建时间: 2019-04-30 01:52:06 大小:9.34 MB 文件数量:1 热度:8 最近下载:2025-02-14 22:58:03
    {"ReadMe.txt": 936, "www.MEGAtorrent.co.jpg": 121208, "Torrent downloaded from H33t.to.txt": 64, "Soda PDF Home 11.1.08.2754 Multilingual + Medicine.exe": 30784610, "Soda PDF Home 11.1.08.2754 Multilingual + Medicine.nfo": 544}
创建时间: 2019-04-30 03:33:22 大小:29.48 MB 文件数量:5 热度:5 最近下载:2025-03-30 02:53:02
    {"ReadMe.url": 1484, "Malwarebytes Anti-Exploit 1.08.1.1189 + Keys.exe": 6530556, "Torrent downloaded from extremlymtorrents.me.txt": 68}
创建时间: 2019-05-01 01:01:54 大小:6.23 MB 文件数量:3 热度:9 最近下载:2025-05-28 23:42:02
    {"ReadMe.url": 1484, "Malwarebytes Anti-Exploit 1.08.1.1189 + Keys.exe": 6530558, "Torrent downloaded from extremlymtorrents.me.txt": 68}
创建时间: 2019-05-01 21:46:35 大小:6.23 MB 文件数量:3 热度:6 最近下载:2025-03-26 09:23:04
    {"crack": {"run_1ff9e.exe": 122158}, "Readme!!.inf": 1084, "WWW.YIFY-TORRENTS.COM.jpg": 85424, "Torrent downloaded from extremlymtorrents.me.txt": 48, "Vector Magic Desktop Edition_Win 32bit 1.08.zip.exe": 72005160}
创建时间: 2019-05-04 19:30:08 大小:68.87 MB 文件数量:5 热度:4 最近下载:2025-01-08 16:56:02
    {"ReadMe.txt": 936, "www.MEGAtorrent.co.jpg": 121208, "Torrent downloaded from H33t.to.txt": 64, "Soda PDF Home 11.1.08.2754 Multilingual + Medicine.exe": 30784610, "Soda PDF Home 11.1.08.2754 Multilingual + Medicine.nfo": 544}
创建时间: 2019-05-06 02:42:04 大小:29.48 MB 文件数量:5 热度:5 最近下载:2025-05-14 08:46:02
    {"install.sh": 1663542, "package.bin": 2691255061}
创建时间: 2019-05-06 14:57:35 大小:2.51 GB 文件数量:2 热度:5 最近下载:2025-04-02 15:25:02
    {"ReadMe.url": 1484, "Malwarebytes Anti-Exploit 1.08.1.1189 + Keys.exe": 6530558, "Torrent downloaded from extremlymtorrents.me.txt": 68}
创建时间: 2019-05-08 23:42:40 大小:6.23 MB 文件数量:3 热度:7 最近下载:2025-03-28 11:41:03